Arcadia, Iowa
Current Conditions -  °F | °C
As of 3:15 PM on Monday 22 Dec 2014 (Local Time) from KCIN Reporting Station
Unknown Precip Unknown Precip  
Wind Chill: 34°   Ceiling: 600
Heat Index: 41°   Visibility: 3mi
Dew Point: 41°   Wind: 12mph
Humidity: 100%   Direction: 120°ESE
Pressure: 29.43"   Gusts: NA
Location:  42.09°N, 95.05°W
Report Text: KCIN 222115Z AUTO 12010KT 3SM -UP OVC006 05/05 A2943 RMK AO2
Loading
Personal Weather Stations






























Interactive Weather Map New forecast layout! Learn more

10-Day Weather Forecast

Advertisements
Track Severe Weather on mobile